Time;durP1;ratioP1;P1;durP2;ratioP2;P2;SDS_P1;SDS_P2;PMS_P1;PMS_P2;Temp;Humidity;BMP_temperature;BMP_pressure;BME280_temperature;BME280_humidity;BME280_pressure;Samples;Min_cycle;Max_cycle;Signal;HPM_P1;HPM_P2
2022/12/14 00:01:08;;;;;;;2.75;1.95;;;17.40;54.50;;;;;;5048541;28;20112;-64
2022/12/14 00:03:34;;;;;;;2.95;1.88;;;17.40;54.60;;;;;;5047089;28;20192;-64
2022/12/14 00:06:08;;;;;;;2.60;1.80;;;17.40;54.50;;;;;;5057202;28;20440;-67
2022/12/14 00:08:34;;;;;;;2.80;1.80;;;17.40;54.50;;;;;;5046217;28;20064;-64
2022/12/14 00:10:59;;;;;;;2.40;1.75;;;17.40;54.50;;;;;;5051911;28;20064;-64
2022/12/14 00:13:25;;;;;;;2.97;1.77;;;17.40;54.50;;;;;;5040097;28;20109;-64
2022/12/14 00:15:51;;;;;;;2.20;1.50;;;17.40;54.60;;;;;;5056356;28;20032;-65
2022/12/14 00:18:16;;;;;;;2.92;2.03;;;17.40;54.50;;;;;;5053527;28;20027;-64
2022/12/14 00:20:42;;;;;;;2.75;1.75;;;17.40;54.50;;;;;;5046486;28;20087;-64
2022/12/14 00:23:07;;;;;;;2.58;1.83;;;17.40;54.50;;;;;;5042273;28;20465;-64
2022/12/14 00:25:33;;;;;;;2.97;1.88;;;17.30;54.50;;;;;;5061139;28;20030;-63
2022/12/14 00:27:58;;;;;;;2.70;1.90;;;17.40;54.50;;;;;;5046788;28;20084;-63
2022/12/14 00:30:24;;;;;;;2.70;1.75;;;17.30;54.50;;;;;;5047469;28;20100;-64
2022/12/14 00:32:50;;;;;;;2.63;1.88;;;17.40;54.50;;;;;;5042370;28;20092;-64
2022/12/14 00:35:16;;;;;;;2.72;1.88;;;17.30;54.50;;;;;;5043854;28;20115;-64
2022/12/14 00:37:42;;;;;;;2.67;1.70;;;17.30;54.50;;;;;;5051250;28;20099;-65
2022/12/14 00:40:09;;;;;;;2.50;1.70;;;17.30;54.50;;;;;;5047380;28;20096;-63
2022/12/14 00:42:35;;;;;;;2.58;1.60;;;17.30;54.50;;;;;;5057375;28;20074;-64
2022/12/14 00:45:02;;;;;;;2.72;1.70;;;17.30;54.50;;;;;;5053455;28;20032;-64
2022/12/14 00:47:28;;;;;;;2.80;1.67;;;17.30;54.50;;;;;;5052096;28;20048;-64
2022/12/14 00:49:53;;;;;;;2.80;1.80;;;17.30;54.50;;;;;;5053578;28;20459;-64
2022/12/14 00:52:19;;;;;;;3.70;1.90;;;17.30;54.50;;;;;;5050533;28;20032;-64
2022/12/14 00:54:45;;;;;;;2.50;1.70;;;17.30;54.50;;;;;;5059784;28;20035;-64
2022/12/14 00:57:11;;;;;;;2.65;1.70;;;17.30;54.50;;;;;;5066518;28;20071;-63
2022/12/14 00:59:36;;;;;;;3.05;1.73;;;17.30;54.50;;;;;;5050750;28;20034;-64
2022/12/14 01:02:02;;;;;;;2.60;1.60;;;17.30;55.00;;;;;;5044503;28;20400;-65
2022/12/14 01:04:28;;;;;;;2.70;1.80;;;17.30;54.50;;;;;;5046371;28;20116;-64
2022/12/14 01:06:54;;;;;;;2.88;1.60;;;17.30;54.50;;;;;;5060498;28;20392;-63
2022/12/14 01:09:22;;;;;;;2.67;1.60;;;17.30;54.50;;;;;;5057139;28;20467;-64
2022/12/14 01:11:47;;;;;;;2.38;1.60;;;17.30;54.50;;;;;;5055362;28;20128;-64
2022/12/14 01:14:16;;;;;;;2.78;1.58;;;17.30;54.50;;;;;;5058274;28;20523;-65
2022/12/14 01:16:42;;;;;;;2.75;1.80;;;17.20;54.40;;;;;;5047619;28;20034;-63
2022/12/14 01:19:10;;;;;;;2.40;1.65;;;17.20;54.40;;;;;;5039324;28;20025;-64
2022/12/14 01:21:35;;;;;;;2.33;1.50;;;17.20;54.50;;;;;;5055537;28;20490;-63
2022/12/14 01:24:03;;;;;;;2.00;1.40;;;17.20;54.50;;;;;;5057459;28;20121;-63
2022/12/14 01:26:32;;;;;;;2.20;1.50;;;17.30;54.50;;;;;;5045018;28;20469;-64
2022/12/14 01:28:59;;;;;;;2.55;1.50;;;17.20;54.50;;;;;;5046133;28;20057;-63
2022/12/14 01:31:27;;;;;;;2.45;1.70;;;17.20;54.40;;;;;;5061119;28;20138;-64
2022/12/14 01:33:53;;;;;;;2.75;1.65;;;17.20;54.40;;;;;;5039689;28;20081;-64
2022/12/14 01:36:25;;;;;;;2.60;1.60;;;17.20;54.40;;;;;;5058386;28;20024;-63
2022/12/14 01:38:54;;;;;;;2.25;1.48;;;17.20;54.50;;;;;;5057479;28;20028;-63
2022/12/14 01:41:26;;;;;;;2.13;1.45;;;17.20;54.40;;;;;;5047932;28;20032;-63
2022/12/14 01:43:54;;;;;;;2.60;1.80;;;17.20;54.40;;;;;;5035828;28;20039;-64
2022/12/14 01:46:42;;;;;;;2.55;1.60;;;17.20;54.40;;;;;;5048807;28;20476;-64
2022/12/14 01:49:30;;;;;;;2.80;1.80;;;17.20;54.40;;;;;;5059327;28;20029;-63
2022/12/14 01:52:15;;;;;;;2.80;1.83;;;17.20;54.40;;;;;;5050226;28;20032;-63
2022/12/14 01:55:04;;;;;;;1.80;1.40;;;17.20;54.40;;;;;;5050832;28;20037;-63
2022/12/14 01:57:43;;;;;;;2.63;1.52;;;17.10;54.40;;;;;;5041871;28;20053;-65
2022/12/14 02:00:12;;;;;;;;;;;17.20;54.50;;;;;;5046660;28;20063;-65
2022/12/14 02:02:53;;;;;;;2.42;1.60;;;17.20;54.40;;;;;;5054792;28;19954;-63
2022/12/14 02:05:22;;;;;;;3.20;1.60;;;17.20;54.40;;;;;;5050307;28;20025;-63
2022/12/14 02:07:50;;;;;;;2.50;1.60;;;17.10;54.40;;;;;;5050250;28;20035;-65
2022/12/14 02:10:16;;;;;;;2.08;1.45;;;17.20;54.40;;;;;;5058585;28;20159;-63
2022/12/14 02:12:47;;;;;;;2.22;1.50;;;17.20;54.40;;;;;;5051286;28;20033;-64
2022/12/14 02:15:13;;;;;;;2.13;1.33;;;17.10;54.40;;;;;;5050818;28;20028;-64
2022/12/14 02:17:42;;;;;;;1.95;1.45;;;17.10;54.40;;;;;;5035017;28;20032;-64
2022/12/14 02:20:08;;;;;;;2.30;1.60;;;17.20;54.40;;;;;;5036708;28;20464;-63
2022/12/14 02:23:25;;;;;;;2.10;1.40;;;17.20;54.40;;;;;;5064251;28;20369;-64
2022/12/14 02:26:21;;;;;;;2.15;1.35;;;17.20;54.40;;;;;;5054722;28;20017;-63
2022/12/14 02:29:21;;;;;;;3.00;1.60;;;17.20;54.40;;;;;;5048720;28;20385;-66
2022/12/14 02:31:52;;;;;;;;;;;17.20;54.40;;;;;;5045404;28;20526;-64
2022/12/14 02:34:43;;;;;;;2.33;1.45;;;17.10;54.40;;;;;;5049376;28;20363;-63
2022/12/14 02:37:33;;;;;;;2.15;1.38;;;17.10;54.30;;;;;;5052230;28;20028;-64
2022/12/14 02:40:20;;;;;;;2.10;1.40;;;17.10;54.30;;;;;;5018424;28;20476;-64
2022/12/14 02:43:27;;;;;;;2.15;1.42;;;17.10;54.80;;;;;;5051759;28;20070;-64
2022/12/14 02:46:17;;;;;;;2.20;1.40;;;17.10;54.30;;;;;;4952466;28;20039;-64
2022/12/14 02:49:21;;;;;;;2.33;1.40;;;17.10;54.40;;;;;;5051411;28;20103;-64
2022/12/14 02:51:56;;;;;;;1.75;1.33;;;17.10;54.30;;;;;;5051091;28;20143;-65
2022/12/14 02:54:34;;;;;;;1.55;1.20;;;17.10;54.40;;;;;;5052739;28;20020;-64
2022/12/14 02:57:15;;;;;;;2.33;1.60;;;17.10;54.30;;;;;;5058243;28;20019;-64
2022/12/14 02:59:41;;;;;;;2.20;1.40;;;17.10;54.30;;;;;;5038870;28;20047;-65
2022/12/14 03:02:09;;;;;;;2.10;1.50;;;17.10;54.30;;;;;;5053387;28;20029;-64
2022/12/14 03:04:46;;;;;;;2.38;1.58;;;17.10;54.40;;;;;;5060568;28;20020;-65
2022/12/14 03:07:39;;;;;;;2.20;1.50;;;17.10;54.30;;;;;;5063976;28;20100;-63
2022/12/14 03:10:05;;;;;;;2.10;1.35;;;17.10;54.30;;;;;;5054963;28;20078;-64
2022/12/14 03:12:31;;;;;;;2.20;1.42;;;17.10;54.40;;;;;;5057161;28;20096;-63
2022/12/14 03:14:58;;;;;;;1.75;1.20;;;17.10;54.30;;;;;;5049692;28;20032;-65
2022/12/14 03:17:26;;;;;;;2.38;1.40;;;17.10;54.30;;;;;;5057457;28;20036;-64
2022/12/14 03:19:59;;;;;;;2.10;1.50;;;17.10;54.30;;;;;;5053544;28;20037;-65
2022/12/14 03:22:36;;;;;;;2.20;1.52;;;17.10;54.30;;;;;;5043570;28;20069;-64
2022/12/14 03:25:12;;;;;;;2.10;1.40;;;17.10;54.30;;;;;;5052376;28;20029;-64
2022/12/14 03:27:45;;;;;;;2.50;1.70;;;17.10;54.30;;;;;;5050806;28;20096;-64
2022/12/14 03:30:14;;;;;;;2.53;1.42;;;17.10;54.30;;;;;;5054134;28;20024;-64
2022/12/14 03:32:48;;;;;;;2.10;1.38;;;17.10;54.40;;;;;;5048713;28;20033;-63
2022/12/14 03:35:27;;;;;;;2.70;1.50;;;17.10;54.30;;;;;;5049904;28;20075;-64
2022/12/14 03:38:12;;;;;;;2.40;1.42;;;17.10;54.30;;;;;;5045269;28;20029;-64
2022/12/14 03:40:50;;;;;;;1.98;1.45;;;17.00;54.20;;;;;;5046734;28;20396;-64
2022/12/14 03:43:21;;;;;;;2.08;1.40;;;17.00;54.30;;;;;;5049220;28;20025;-63
2022/12/14 03:45:59;;;;;;;2.38;1.45;;;17.00;54.30;;;;;;5050420;28;20021;-63
2022/12/14 03:48:33;;;;;;;2.10;1.38;;;17.00;54.30;;;;;;5050766;28;20510;-64
2022/12/14 03:51:12;;;;;;;2.38;1.50;;;17.10;54.30;;;;;;5042080;28;20034;-63
2022/12/14 03:53:38;;;;;;;1.85;1.25;;;17.00;54.20;;;;;;5048754;28;20047;-65
2022/12/14 03:56:43;;;;;;;2.30;1.60;;;17.10;54.30;;;;;;5036802;28;20074;-64
2022/12/14 03:59:33;;;;;;;2.20;1.30;;;17.10;54.30;;;;;;5043373;28;20049;-64
2022/12/14 04:02:15;;;;;;;2.15;1.45;;;17.10;54.30;;;;;;5052595;28;20512;-65
2022/12/14 04:05:06;;;;;;;2.25;1.48;;;17.10;54.30;;;;;;5043645;28;20128;-64
2022/12/14 04:07:36;;;;;;;2.05;1.40;;;17.10;54.30;;;;;;5049015;28;20037;-64
2022/12/14 04:18:55;;;;;;;2.10;1.50;;;17.00;54.30;;;;;;5046792;28;20124;-64
2022/12/14 04:22:05;;;;;;;2.05;1.45;;;17.10;54.30;;;;;;5046182;28;20036;-64
2022/12/14 04:28:06;;;;;;;1.48;1.20;;;17.10;54.20;;;;;;5060736;28;20560;-65
2022/12/14 04:30:38;;;;;;;1.75;1.27;;;17.10;54.20;;;;;;4948693;29;20043;-65
2022/12/14 04:35:56;;;;;;;2.13;1.45;;;17.10;54.10;;;;;;5052300;28;20415;-64
2022/12/14 04:38:31;;;;;;;2.25;1.50;;;17.10;54.20;;;;;;5048042;28;20584;-64
2022/12/14 04:41:01;;;;;;;2.30;1.52;;;17.10;54.20;;;;;;5055023;28;20295;-64
2022/12/14 04:43:30;;;;;;;2.35;1.70;;;17.10;54.20;;;;;;5055948;28;20516;-64
2022/12/14 04:46:06;;;;;;;1.95;1.52;;;17.20;54.30;;;;;;5055002;28;20052;-63
2022/12/14 04:49:07;;;;;;;2.05;1.42;;;17.20;54.30;;;;;;5051228;28;20526;-63
2022/12/14 04:51:46;;;;;;;2.60;1.70;;;17.20;54.40;;;;;;5027833;28;20162;-63
2022/12/14 04:54:20;;;;;;;2.25;1.65;;;17.20;54.60;;;;;;5051294;28;20033;-64
2022/12/14 04:56:58;;;;;;;2.90;1.80;;;17.30;54.40;;;;;;5058762;28;20025;-64
2022/12/14 04:59:24;;;;;;;2.70;1.80;;;17.30;54.50;;;;;;5055594;28;20436;-64
2022/12/14 05:02:01;;;;;;;2.35;1.65;;;17.30;54.40;;;;;;5048517;28;20111;-65
2022/12/14 05:04:54;;;;;;;2.80;2.05;;;17.30;54.40;;;;;;5050164;28;20062;-63
2022/12/14 05:07:57;;;;;;;2.90;1.90;;;17.30;54.40;;;;;;5047029;28;20029;-64
2022/12/14 05:10:31;;;;;;;2.30;1.80;;;17.30;54.50;;;;;;5054788;28;20468;-63
2022/12/14 05:13:06;;;;;;;2.72;2.10;;;17.40;54.60;;;;;;5051170;28;20476;-63
2022/12/14 05:15:41;;;;;;;3.72;2.20;;;17.40;54.60;;;;;;5053753;28;20039;-64
2022/12/14 05:18:07;;;;;;;2.70;2.03;;;17.40;54.60;;;;;;5054154;28;20033;-64
2022/12/14 05:20:33;;;;;;;3.10;2.30;;;17.40;54.50;;;;;;5049952;28;20040;-64
2022/12/14 05:22:58;;;;;;;3.10;2.20;;;17.40;54.50;;;;;;5040610;28;20415;-64
2022/12/14 05:25:24;;;;;;;3.35;2.30;;;17.40;54.50;;;;;;5050373;28;20091;-65
2022/12/14 05:27:50;;;;;;;2.55;2.00;;;17.40;54.40;;;;;;5055829;28;20090;-65
2022/12/14 05:30:16;;;;;;;2.97;2.30;;;17.40;54.40;;;;;;5052602;28;20037;-64
2022/12/14 05:32:41;;;;;;;3.17;2.20;;;17.50;54.50;;;;;;5050882;28;20031;-64
2022/12/14 05:35:10;;;;;;;3.58;2.15;;;17.50;54.60;;;;;;5058003;28;20032;-65
2022/12/14 05:37:35;;;;;;;2.75;2.22;;;17.50;54.60;;;;;;5051195;28;20029;-64
2022/12/14 05:40:01;;;;;;;3.20;2.28;;;17.50;54.60;;;;;;5044618;28;20028;-65
2022/12/14 05:42:27;;;;;;;2.97;2.22;;;17.50;54.70;;;;;;5038877;28;20100;-64
2022/12/14 05:44:52;;;;;;;3.10;2.35;;;17.50;54.70;;;;;;5053952;28;20391;-65
2022/12/14 05:47:18;;;;;;;2.60;2.10;;;17.50;54.80;;;;;;5055244;28;20028;-65
2022/12/14 05:49:44;;;;;;;2.63;2.17;;;17.50;54.70;;;;;;5054327;28;20032;-64
2022/12/14 05:52:09;;;;;;;2.40;1.90;;;17.50;54.70;;;;;;5062198;28;20029;-65
2022/12/14 05:54:35;;;;;;;3.10;2.50;;;17.50;55.20;;;;;;5057823;28;20380;-65
2022/12/14 05:57:01;;;;;;;3.17;2.15;;;17.50;55.20;;;;;;5059461;28;20492;-65
2022/12/14 05:59:26;;;;;;;3.25;2.25;;;17.50;54.70;;;;;;5053821;28;20104;-64
2022/12/14 06:01:52;;;;;;;2.80;2.10;;;17.50;54.70;;;;;;5050955;28;20033;-64
2022/12/14 06:04:18;;;;;;;4.05;2.05;;;17.50;54.70;;;;;;5052017;28;20033;-65
2022/12/14 06:06:43;;;;;;;2.40;2.00;;;17.50;54.60;;;;;;5054293;28;20108;-64
2022/12/14 06:09:12;;;;;;;2.50;1.92;;;17.50;54.60;;;;;;5053633;28;20045;-66
2022/12/14 06:11:39;;;;;;;2.80;2.00;;;17.50;54.60;;;;;;5057952;28;20473;-65
2022/12/14 06:14:06;;;;;;;3.05;2.05;;;17.50;54.60;;;;;;5052733;28;20028;-65
2022/12/14 06:16:33;;;;;;;2.95;2.08;;;17.50;54.60;;;;;;5051999;28;20127;-64
2022/12/14 06:19:00;;;;;;;4.00;2.00;;;17.50;54.60;;;;;;5041914;28;20107;-65
2022/12/14 06:21:31;;;;;;;3.67;2.20;;;17.50;54.60;;;;;;5050978;28;20400;-65
2022/12/14 06:23:58;;;;;;;3.20;2.30;;;17.50;54.60;;;;;;5052764;28;20033;-65
2022/12/14 06:26:25;;;;;;;3.50;2.22;;;17.50;54.60;;;;;;5058453;28;20431;-64
2022/12/14 06:28:50;;;;;;;3.30;2.40;;;17.50;54.60;;;;;;5050078;28;20117;-65
2022/12/14 06:31:28;;;;;;;3.80;2.13;;;17.50;54.60;;;;;;5041139;28;20108;-65
2022/12/14 06:33:57;;;;;;;3.55;2.15;;;17.50;54.60;;;;;;5044315;28;20026;-66
2022/12/14 06:36:31;;;;;;;3.97;2.42;;;17.50;54.50;;;;;;5050825;28;20071;-65
2022/12/14 06:39:01;;;;;;;5.50;2.38;;;17.50;54.50;;;;;;5030788;28;20406;-65
2022/12/14 06:41:27;;;;;;;3.97;2.38;;;17.50;54.50;;;;;;5061800;28;20079;-65
2022/12/14 06:43:53;;;;;;;3.30;2.20;;;17.50;54.50;;;;;;5054290;28;20446;-65
2022/12/14 06:46:20;;;;;;;3.63;2.08;;;17.50;54.50;;;;;;5046042;28;20028;-65
2022/12/14 06:48:54;;;;;;;4.28;2.25;;;17.50;54.50;;;;;;5052130;28;20025;-64
2022/12/14 06:51:21;;;;;;;3.97;2.30;;;17.50;54.50;;;;;;5054741;28;20091;-64
2022/12/14 06:53:51;;;;;;;3.72;2.40;;;17.60;54.50;;;;;;5058958;28;20026;-65
2022/12/14 06:56:17;;;;;;;5.03;2.40;;;17.50;54.40;;;;;;5066211;28;20025;-65
2022/12/14 06:58:44;;;;;;;3.25;2.10;;;17.50;54.40;;;;;;5054067;28;20064;-64
2022/12/14 07:01:14;;;;;;;4.60;2.40;;;17.50;54.40;;;;;;5051604;28;20025;-65
2022/12/14 07:03:41;;;;;;;3.25;2.22;;;17.50;54.40;;;;;;5049919;28;20076;-66
2022/12/14 07:06:07;;;;;;;3.45;2.20;;;17.50;54.40;;;;;;5051202;28;20432;-65
2022/12/14 07:08:35;;;;;;;3.70;2.40;;;17.50;54.40;;;;;;5055493;28;20489;-65
2022/12/14 07:11:06;;;;;;;4.35;2.30;;;17.50;54.30;;;;;;5051607;28;20564;-65
2022/12/14 07:13:32;;;;;;;3.95;2.22;;;17.50;54.30;;;;;;5056423;28;20025;-65
2022/12/14 07:15:59;;;;;;;5.28;2.15;;;17.50;54.30;;;;;;5056613;28;20097;-65
2022/12/14 07:18:25;;;;;;;4.45;2.20;;;17.50;54.30;;;;;;5049524;28;20030;-65
2022/12/14 07:21:03;;;;;;;4.60;2.60;;;17.50;54.20;;;;;;5055946;28;20381;-66
2022/12/14 07:23:30;;;;;;;3.22;2.13;;;17.50;54.20;;;;;;5054454;28;20116;-65
2022/12/14 07:26:04;;;;;;;3.60;2.42;;;17.50;54.20;;;;;;5053116;28;20035;-65
2022/12/14 07:28:31;;;;;;;5.05;2.50;;;17.50;54.20;;;;;;5047758;28;20139;-65
2022/12/14 07:30:58;;;;;;;3.30;2.10;;;17.50;54.20;;;;;;5045010;28;20503;-65
2022/12/14 07:33:25;;;;;;;4.32;2.30;;;17.50;54.20;;;;;;5050450;28;20030;-65
2022/12/14 07:35:51;;;;;;;4.97;2.30;;;17.50;54.20;;;;;;5049454;28;20379;-65
2022/12/14 07:38:17;;;;;;;4.72;2.33;;;17.50;54.10;;;;;;5051394;28;20417;-64
2022/12/14 07:40:43;;;;;;;4.90;2.50;;;17.50;54.10;;;;;;5053800;28;20495;-65
2022/12/14 07:43:09;;;;;;;4.20;2.10;;;17.50;54.10;;;;;;5053154;28;20075;-64
2022/12/14 07:45:35;;;;;;;3.78;2.08;;;17.50;54.10;;;;;;5050334;28;20025;-65
2022/12/14 07:48:01;;;;;;;4.13;2.10;;;17.60;54.10;;;;;;5049150;28;20093;-64
2022/12/14 07:50:27;;;;;;;3.97;2.10;;;17.50;54.00;;;;;;5050363;28;20070;-64
2022/12/14 07:52:52;;;;;;;4.13;2.30;;;17.50;54.00;;;;;;5055397;28;20029;-65
2022/12/14 07:55:18;;;;;;;3.65;2.10;;;17.50;54.00;;;;;;5053316;28;20499;-65
2022/12/14 07:57:44;;;;;;;3.65;2.20;;;17.50;54.00;;;;;;5042253;28;20108;-65
2022/12/14 08:00:10;;;;;;;4.30;2.10;;;17.50;54.00;;;;;;5053363;28;20017;-65
2022/12/14 08:02:35;;;;;;;3.75;2.40;;;17.50;53.90;;;;;;5059213;28;20037;-64
2022/12/14 08:05:01;;;;;;;3.75;2.13;;;17.50;53.90;;;;;;5055264;28;20032;-65
2022/12/14 08:07:30;;;;;;;3.65;2.17;;;17.50;53.90;;;;;;5036398;28;20025;-65
2022/12/14 08:09:55;;;;;;;4.57;2.40;;;17.50;53.90;;;;;;5050402;28;20579;-65
2022/12/14 08:12:21;;;;;;;3.72;2.30;;;17.50;53.90;;;;;;5050271;28;20103;-65
2022/12/14 08:14:47;;;;;;;3.72;2.30;;;17.50;53.90;;;;;;5057219;28;20027;-65
2022/12/14 08:17:13;;;;;;;4.63;2.30;;;17.50;53.90;;;;;;5038563;28;20025;-64
2022/12/14 08:19:38;;;;;;;3.92;1.90;;;17.50;53.80;;;;;;5048627;28;20029;-65
2022/12/14 08:22:04;;;;;;;3.83;2.33;;;17.50;53.80;;;;;;5052817;28;20048;-65
2022/12/14 08:24:30;;;;;;;6.38;2.70;;;17.50;53.80;;;;;;5051547;28;20112;-65
2022/12/14 08:26:55;;;;;;;3.95;2.05;;;17.50;53.80;;;;;;5059790;28;20025;-65
2022/12/14 08:29:21;;;;;;;3.47;1.83;;;17.50;53.80;;;;;;5058229;28;20029;-64
2022/12/14 08:31:47;;;;;;;3.65;1.92;;;17.50;53.80;;;;;;5060410;28;20028;-65
2022/12/14 08:34:14;;;;;;;5.57;2.53;;;17.50;53.80;;;;;;5064097;28;20055;-65
2022/12/14 08:36:40;;;;;;;4.15;2.25;;;17.50;53.70;;;;;;5057087;28;20337;-65
2022/12/14 08:39:08;;;;;;;4.15;2.28;;;17.50;53.70;;;;;;5060903;28;20029;-65
2022/12/14 08:41:34;;;;;;;3.58;2.00;;;17.50;53.70;;;;;;5058488;28;20120;-65
2022/12/14 08:44:01;;;;;;;3.50;2.15;;;17.50;53.70;;;;;;5061646;28;20063;-64
2022/12/14 08:46:29;;;;;;;3.90;2.10;;;17.50;53.70;;;;;;5062629;28;20029;-64
2022/12/14 08:48:55;;;;;;;3.97;1.90;;;17.50;53.70;;;;;;5047528;28;20029;-66
2022/12/14 08:51:22;;;;;;;3.38;1.80;;;17.50;53.70;;;;;;5050056;28;20029;-66
2022/12/14 08:53:48;;;;;;;4.10;1.90;;;17.50;53.60;;;;;;5046343;28;20481;-66
2022/12/14 08:56:17;;;;;;;3.97;1.95;;;17.50;53.60;;;;;;5047739;28;20209;-65
2022/12/14 08:58:43;;;;;;;3.55;2.17;;;17.50;53.60;;;;;;5056701;28;20503;-65
2022/12/14 09:01:12;;;;;;;3.60;2.17;;;17.50;53.60;;;;;;5051037;28;20469;-65
2022/12/14 09:03:43;;;;;;;4.10;1.95;;;17.50;53.70;;;;;;5046758;28;20499;-65
2022/12/14 09:06:11;;;;;;;3.60;2.08;;;17.50;53.60;;;;;;5053361;28;20036;-64
2022/12/14 09:08:37;;;;;;;3.53;2.00;;;17.50;53.60;;;;;;5057179;28;20134;-65
2022/12/14 09:11:04;;;;;;;3.58;1.92;;;17.50;53.60;;;;;;5060095;28;20030;-66
2022/12/14 09:13:30;;;;;;;4.30;2.00;;;17.50;53.60;;;;;;5057612;28;20390;-65
2022/12/14 09:16:04;;;;;;;3.42;2.00;;;17.50;53.60;;;;;;5024093;28;20127;-64
2022/12/14 09:18:30;;;;;;;3.17;1.80;;;17.50;53.60;;;;;;5027399;28;20017;-65
2022/12/14 09:20:56;;;;;;;3.40;1.88;;;17.50;53.50;;;;;;5047147;28;20082;-64
2022/12/14 09:23:24;;;;;;;3.53;1.92;;;17.50;53.50;;;;;;5047726;28;20037;-64
2022/12/14 09:26:11;;;;;;;3.97;2.00;;;17.50;53.50;;;;;;5055574;28;20392;-65
2022/12/14 09:28:39;;;;;;;2.92;1.90;;;17.50;53.50;;;;;;5046881;28;20384;-64
2022/12/14 09:31:09;;;;;;;3.45;2.20;;;17.50;53.50;;;;;;5050447;28;20112;-66
2022/12/14 09:33:35;;;;;;;3.40;2.10;;;17.50;53.50;;;;;;5055136;28;20368;-64
2022/12/14 09:36:17;;;;;;;3.30;1.95;;;17.50;53.50;;;;;;5045918;28;20456;-66
2022/12/14 09:38:44;;;;;;;3.20;1.80;;;17.50;53.50;;;;;;5046211;28;20036;-64
2022/12/14 09:41:33;;;;;;;4.25;2.05;;;17.50;53.50;;;;;;5048682;28;20029;-65
2022/12/14 09:44:03;;;;;;;3.60;1.90;;;17.50;53.50;;;;;;5054579;28;20485;-65
2022/12/14 09:47:03;;;;;;;2.97;1.88;;;17.50;53.50;;;;;;5045932;28;20029;-64
2022/12/14 09:49:43;;;;;;;;;;;17.50;53.40;;;;;;5054666;28;20153;-65
2022/12/14 09:52:19;;;;;;;3.97;2.20;;;17.50;53.40;;;;;;5052249;28;19916;-65
2022/12/14 09:54:46;;;;;;;3.58;1.98;;;17.50;53.40;;;;;;5051246;28;20380;-65
2022/12/14 09:57:29;;;;;;;3.92;2.17;;;17.50;53.50;;;;;;5042414;28;20021;-65
2022/12/14 09:59:55;;;;;;;3.67;1.90;;;17.50;53.40;;;;;;5054820;28;20024;-65
2022/12/14 10:02:32;;;;;;;3.30;1.90;;;17.50;53.50;;;;;;5053766;28;20036;-64
2022/12/14 10:05:16;;;;;;;3.67;2.10;;;17.40;53.30;;;;;;5048745;28;20020;-65
2022/12/14 10:08:26;;;;;;;3.40;2.00;;;17.40;53.30;;;;;;5046925;28;20026;-65
2022/12/14 10:11:17;;;;;;;3.15;1.77;;;17.50;53.40;;;;;;5035891;28;20066;-65
2022/12/14 10:14:12;;;;;;;2.95;1.77;;;17.50;53.40;;;;;;5060126;28;20024;-65
2022/12/14 10:16:55;;;;;;;2.92;1.77;;;17.40;53.30;;;;;;5046104;28;20136;-65
2022/12/14 10:19:32;;;;;;;3.83;2.05;;;17.50;53.40;;;;;;5047144;28;20025;-64
2022/12/14 10:22:03;;;;;;;3.53;2.10;;;17.40;53.30;;;;;;5048227;28;20033;-64
2022/12/14 10:24:39;;;;;;;2.90;1.90;;;17.40;53.30;;;;;;5052193;28;20036;-65
2022/12/14 10:27:07;;;;;;;2.70;1.70;;;17.40;53.30;;;;;;5052241;28;20055;-64
2022/12/14 10:29:42;;;;;;;3.20;1.88;;;17.40;53.30;;;;;;5052921;28;20029;-65
2022/12/14 10:32:16;;;;;;;2.95;1.73;;;17.40;53.30;;;;;;5049906;28;20037;-64
2022/12/14 10:34:42;;;;;;;3.60;1.83;;;17.50;53.40;;;;;;5045391;28;20051;-65
2022/12/14 10:37:13;;;;;;;2.78;1.75;;;17.40;53.30;;;;;;5046918;28;20017;-64
2022/12/14 10:40:01;;;;;;;3.40;1.83;;;17.40;53.30;;;;;;5053995;28;20028;-65
2022/12/14 10:42:50;;;;;;;3.47;1.70;;;17.40;53.20;;;;;;5057188;28;20036;-65
2022/12/14 10:45:31;;;;;;;4.70;2.28;;;17.40;53.30;;;;;;5049650;28;20104;-65
2022/12/14 10:48:06;;;;;;;3.05;1.98;;;17.40;53.30;;;;;;5043970;28;20090;-64
2022/12/14 10:50:56;;;;;;;2.92;1.90;;;17.40;53.30;;;;;;5043271;28;20138;-65
2022/12/14 10:53:26;;;;;;;;;;;17.40;53.30;;;;;;5045026;28;20083;-65
2022/12/14 10:55:58;;;;;;;4.00;2.10;;;17.40;53.20;;;;;;5036552;28;19905;-65
2022/12/14 10:58:24;;;;;;;3.00;1.90;;;17.40;53.30;;;;;;5042626;28;20082;-65
2022/12/14 11:00:53;;;;;;;3.35;1.80;;;17.40;53.30;;;;;;5047189;28;20026;-65
2022/12/14 11:03:20;;;;;;;2.80;1.70;;;17.40;53.30;;;;;;5043109;28;20027;-65
2022/12/14 11:06:24;;;;;;;4.03;2.00;;;17.40;53.30;;;;;;5051029;28;20455;-65
2022/12/14 11:08:50;;;;;;;2.92;2.00;;;17.40;53.20;;;;;;5048975;28;20484;-65
2022/12/14 11:11:19;;;;;;;2.90;1.90;;;17.40;53.30;;;;;;5053557;28;20492;-65
2022/12/14 11:13:59;;;;;;;3.67;2.17;;;17.40;53.30;;;;;;5046612;28;20483;-66
2022/12/14 11:16:35;;;;;;;;;;;17.40;53.30;;;;;;5045784;28;20032;-64
2022/12/14 11:19:02;;;;;;;3.22;2.10;;;17.40;53.20;;;;;;5053939;28;20415;-65
2022/12/14 11:21:33;;;;;;;3.00;1.90;;;17.40;53.20;;;;;;5047120;28;20033;-65
2022/12/14 11:24:00;;;;;;;3.25;2.15;;;17.40;53.30;;;;;;5044672;28;20047;-65
2022/12/14 11:26:34;;;;;;;3.63;2.10;;;17.40;53.20;;;;;;5050524;28;20021;-65
2022/12/14 11:29:01;;;;;;;3.22;2.13;;;17.40;53.30;;;;;;5050411;28;20048;-65
2022/12/14 11:31:38;;;;;;;3.85;2.30;;;17.40;53.20;;;;;;5055713;28;20025;-65
2022/12/14 11:34:17;;;;;;;3.75;2.40;;;17.40;53.20;;;;;;5050136;28;20052;-65
2022/12/14 11:36:43;;;;;;;3.80;2.00;;;17.40;53.20;;;;;;5054943;28;20035;-65
2022/12/14 11:39:11;;;;;;;3.42;2.00;;;17.40;53.30;;;;;;5061962;28;20032;-65
2022/12/14 11:41:41;;;;;;;3.38;2.35;;;17.40;53.30;;;;;;5056345;28;20044;-65
2022/12/14 11:44:15;;;;;;;3.50;2.60;;;17.40;53.20;;;;;;5047854;28;20028;-65
2022/12/14 11:46:55;;;;;;;3.95;2.17;;;17.40;53.20;;;;;;5046907;28;20033;-66
2022/12/14 11:49:26;;;;;;;;;;;17.40;53.20;;;;;;5054842;28;20041;-65
2022/12/14 11:52:00;;;;;;;4.30;2.60;;;17.40;53.20;;;;;;5054438;28;19920;-65
2022/12/14 11:54:27;;;;;;;4.43;2.67;;;17.40;53.20;;;;;;5039477;28;20021;-66
2022/12/14 11:57:05;;;;;;;3.90;2.30;;;17.40;53.20;;;;;;5035697;28;20481;-65
2022/12/14 11:59:48;;;;;;;3.70;2.37;;;17.40;53.70;;;;;;5036911;28;20493;-65
2022/12/14 12:02:28;;;;;;;3.47;2.38;;;17.40;53.20;;;;;;5055812;28;20392;-66
2022/12/14 12:05:18;;;;;;;3.85;2.40;;;17.40;53.20;;;;;;5057707;28;20021;-66
2022/12/14 12:07:53;;;;;;;4.00;2.60;;;17.40;53.70;;;;;;5055763;28;20033;-65
2022/12/14 12:10:22;;;;;;;4.57;2.42;;;17.30;53.20;;;;;;5057288;28;20484;-64
2022/12/14 12:12:50;;;;;;;;;;;17.30;53.20;;;;;;5056382;28;20029;-64
2022/12/14 12:15:19;;;;;;;3.80;2.60;;;17.40;53.20;;;;;;5057383;28;20370;-66
2022/12/14 12:17:49;;;;;;;3.45;2.30;;;17.30;53.20;;;;;;5055512;28;20053;-65
2022/12/14 12:20:20;;;;;;;3.88;2.35;;;17.30;53.20;;;;;;5056640;28;20021;-64
2022/12/14 12:22:50;;;;;;;3.70;2.25;;;17.40;53.30;;;;;;5058195;28;20056;-65
2022/12/14 12:25:22;;;;;;;3.17;2.28;;;17.30;53.20;;;;;;5056443;28;20134;-66
2022/12/14 12:27:56;;;;;;;3.65;2.70;;;17.40;53.30;;;;;;5046903;28;20032;-65
2022/12/14 12:30:27;;;;;;;3.90;2.55;;;17.30;53.20;;;;;;5047669;28;20025;-64
2022/12/14 12:32:55;;;;;;;3.90;2.58;;;17.30;53.20;;;;;;5052227;28;20024;-64
2022/12/14 12:35:35;;;;;;;3.30;2.20;;;17.30;53.20;;;;;;5055768;28;20031;-65
2022/12/14 12:38:11;;;;;;;4.03;2.50;;;17.40;53.20;;;;;;5052262;28;20529;-65
2022/12/14 12:41:05;;;;;;;3.70;2.50;;;17.40;53.70;;;;;;5054864;28;20108;-65
2022/12/14 12:43:40;;;;;;;3.72;2.35;;;17.40;53.20;;;;;;5051526;28;20032;-65
2022/12/14 12:46:29;;;;;;;3.88;2.45;;;17.40;53.20;;;;;;5054441;28;20040;-65
2022/12/14 12:49:05;;;;;;;3.90;2.50;;;17.40;53.20;;;;;;5061347;28;20028;-66
2022/12/14 12:51:43;;;;;;;4.00;2.38;;;17.40;53.20;;;;;;5053853;28;20509;-64
2022/12/14 12:54:19;;;;;;;3.85;2.40;;;17.40;53.20;;;;;;5047734;28;20025;-66
2022/12/14 12:56:51;;;;;;;3.42;2.30;;;17.40;53.20;;;;;;5057312;28;20017;-65
2022/12/14 12:59:25;;;;;;;4.55;2.58;;;17.40;53.20;;;;;;5058239;28;20378;-66
2022/12/14 13:01:56;;;;;;;3.90;2.50;;;17.40;53.10;;;;;;5053759;28;20026;-66
2022/12/14 13:04:34;;;;;;;3.80;2.55;;;17.40;53.20;;;;;;5046650;28;20081;-65
2022/12/14 13:07:21;;;;;;;3.70;2.35;;;17.40;53.10;;;;;;5052473;28;20507;-65
2022/12/14 13:10:17;;;;;;;4.07;2.55;;;17.40;53.20;;;;;;5048630;28;20123;-65
2022/12/14 13:12:55;;;;;;;3.50;2.28;;;17.40;53.20;;;;;;5038571;28;20542;-65
2022/12/14 13:15:39;;;;;;;4.28;2.50;;;17.40;53.20;;;;;;5055831;28;20017;-66
2022/12/14 13:18:40;;;;;;;4.43;2.67;;;17.40;53.20;;;;;;5044288;28;20057;-66
2022/12/14 13:21:21;;;;;;;5.18;2.70;;;17.40;53.30;;;;;;5002861;28;20511;-66
2022/12/14 13:23:47;;;;;;;4.50;2.47;;;17.40;53.90;;;;;;5050591;28;20069;-65
2022/12/14 13:26:46;;;;;;;4.65;2.30;;;17.40;53.40;;;;;;5046349;28;20052;-66
2022/12/14 13:29:23;;;;;;;4.22;2.25;;;17.40;53.50;;;;;;5048079;28;20384;-66
2022/12/14 13:31:56;;;;;;;4.45;2.60;;;17.40;53.50;;;;;;5040367;28;20037;-65